sensor_id;sensor_type;location;lat;lon;timestamp;P1;durP1;ratioP1;P2;durP2;ratioP2
32216;SDS011;18709;51.140;4.088;2022-07-18T00:00:09;5.32;;;2.88;;
32216;SDS011;18709;51.140;4.088;2022-07-18T00:02:35;9.25;;;2.60;;
32216;SDS011;18709;51.140;4.088;2022-07-18T00:05:01;9.52;;;2.60;;
32216;SDS011;18709;51.140;4.088;2022-07-18T00:07:27;7.38;;;2.35;;
32216;SDS011;18709;51.140;4.088;2022-07-18T00:09:53;5.13;;;2.40;;
32216;SDS011;18709;51.140;4.088;2022-07-18T00:12:18;5.57;;;2.22;;
32216;SDS011;18709;51.140;4.088;2022-07-18T00:14:44;7.70;;;2.40;;
32216;SDS011;18709;51.140;4.088;2022-07-18T00:17:10;7.45;;;2.40;;
32216;SDS011;18709;51.140;4.088;2022-07-18T00:19:36;7.75;;;2.40;;
32216;SDS011;18709;51.140;4.088;2022-07-18T00:22:03;9.60;;;2.67;;
32216;SDS011;18709;51.140;4.088;2022-07-18T00:24:30;4.43;;;2.20;;
32216;SDS011;18709;51.140;4.088;2022-07-18T00:26:59;6.63;;;2.35;;
32216;SDS011;18709;51.140;4.088;2022-07-18T00:29:25;4.60;;;2.25;;
32216;SDS011;18709;51.140;4.088;2022-07-18T00:31:51;6.40;;;2.15;;
32216;SDS011;18709;51.140;4.088;2022-07-18T00:34:17;4.15;;;2.03;;
32216;SDS011;18709;51.140;4.088;2022-07-18T00:36:43;5.90;;;2.30;;
32216;SDS011;18709;51.140;4.088;2022-07-18T00:39:09;4.35;;;1.90;;
32216;SDS011;18709;51.140;4.088;2022-07-18T00:41:34;4.32;;;2.28;;
32216;SDS011;18709;51.140;4.088;2022-07-18T00:44:01;6.18;;;2.50;;
32216;SDS011;18709;51.140;4.088;2022-07-18T00:46:27;9.90;;;2.70;;
32216;SDS011;18709;51.140;4.088;2022-07-18T00:48:53;8.55;;;2.72;;
32216;SDS011;18709;51.140;4.088;2022-07-18T00:51:19;5.20;;;2.15;;
32216;SDS011;18709;51.140;4.088;2022-07-18T00:53:45;6.25;;;2.55;;
32216;SDS011;18709;51.140;4.088;2022-07-18T00:56:12;8.20;;;2.15;;
32216;SDS011;18709;51.140;4.088;2022-07-18T00:58:44;7.93;;;2.20;;
32216;SDS011;18709;51.140;4.088;2022-07-18T01:01:10;5.18;;;2.17;;
32216;SDS011;18709;51.140;4.088;2022-07-18T01:03:55;3.78;;;2.08;;
32216;SDS011;18709;51.140;4.088;2022-07-18T01:06:21;7.85;;;2.45;;
32216;SDS011;18709;51.140;4.088;2022-07-18T01:08:47;3.88;;;2.17;;
32216;SDS011;18709;51.140;4.088;2022-07-18T01:11:13;4.90;;;2.00;;
32216;SDS011;18709;51.140;4.088;2022-07-18T01:13:39;4.28;;;2.20;;
32216;SDS011;18709;51.140;4.088;2022-07-18T01:16:06;6.78;;;2.33;;
32216;SDS011;18709;51.140;4.088;2022-07-18T01:18:32;4.25;;;2.05;;
32216;SDS011;18709;51.140;4.088;2022-07-18T01:20:57;4.88;;;2.42;;
32216;SDS011;18709;51.140;4.088;2022-07-18T01:23:23;5.90;;;2.08;;
32216;SDS011;18709;51.140;4.088;2022-07-18T01:25:49;4.22;;;2.10;;
32216;SDS011;18709;51.140;4.088;2022-07-18T01:28:16;6.00;;;2.50;;
32216;SDS011;18709;51.140;4.088;2022-07-18T01:30:42;6.22;;;2.28;;
32216;SDS011;18709;51.140;4.088;2022-07-18T01:33:08;3.20;;;1.90;;
32216;SDS011;18709;51.140;4.088;2022-07-18T01:35:33;5.97;;;2.05;;
32216;SDS011;18709;51.140;4.088;2022-07-18T01:38:00;4.15;;;2.03;;
32216;SDS011;18709;51.140;4.088;2022-07-18T01:40:26;4.70;;;2.42;;
32216;SDS011;18709;51.140;4.088;2022-07-18T01:42:52;6.13;;;1.88;;
32216;SDS011;18709;51.140;4.088;2022-07-18T01:45:19;4.88;;;1.77;;
32216;SDS011;18709;51.140;4.088;2022-07-18T01:47:45;8.95;;;2.10;;
32216;SDS011;18709;51.140;4.088;2022-07-18T01:50:11;4.57;;;1.95;;
32216;SDS011;18709;51.140;4.088;2022-07-18T01:52:37;6.60;;;2.15;;
32216;SDS011;18709;51.140;4.088;2022-07-18T01:55:04;4.90;;;2.20;;
32216;SDS011;18709;51.140;4.088;2022-07-18T01:57:32;13.13;;;2.70;;
32216;SDS011;18709;51.140;4.088;2022-07-18T01:59:58;4.82;;;2.00;;
32216;SDS011;18709;51.140;4.088;2022-07-18T02:02:24;6.40;;;1.92;;
32216;SDS011;18709;51.140;4.088;2022-07-18T02:04:50;8.02;;;2.05;;
32216;SDS011;18709;51.140;4.088;2022-07-18T02:07:25;2.88;;;1.73;;
32216;SDS011;18709;51.140;4.088;2022-07-18T02:09:52;6.88;;;2.30;;
32216;SDS011;18709;51.140;4.088;2022-07-18T02:12:18;5.07;;;2.15;;
32216;SDS011;18709;51.140;4.088;2022-07-18T02:14:44;7.75;;;2.40;;
32216;SDS011;18709;51.140;4.088;2022-07-18T02:17:09;10.18;;;2.72;;
32216;SDS011;18709;51.140;4.088;2022-07-18T02:19:35;6.53;;;2.25;;
32216;SDS011;18709;51.140;4.088;2022-07-18T02:22:01;4.45;;;2.28;;
32216;SDS011;18709;51.140;4.088;2022-07-18T02:24:27;7.28;;;2.22;;
32216;SDS011;18709;51.140;4.088;2022-07-18T02:27:02;4.97;;;2.17;;
32216;SDS011;18709;51.140;4.088;2022-07-18T02:29:28;4.78;;;1.95;;
32216;SDS011;18709;51.140;4.088;2022-07-18T02:31:54;7.28;;;2.13;;
32216;SDS011;18709;51.140;4.088;2022-07-18T02:34:20;5.90;;;2.00;;
32216;SDS011;18709;51.140;4.088;2022-07-18T02:36:45;4.43;;;2.40;;
32216;SDS011;18709;51.140;4.088;2022-07-18T02:39:12;6.78;;;2.17;;
32216;SDS011;18709;51.140;4.088;2022-07-18T02:41:39;4.22;;;2.08;;
32216;SDS011;18709;51.140;4.088;2022-07-18T02:44:05;5.40;;;2.17;;
32216;SDS011;18709;51.140;4.088;2022-07-18T02:46:30;5.68;;;2.30;;
32216;SDS011;18709;51.140;4.088;2022-07-18T02:48:56;4.15;;;1.92;;
32216;SDS011;18709;51.140;4.088;2022-07-18T02:51:22;5.32;;;1.98;;
32216;SDS011;18709;51.140;4.088;2022-07-18T02:53:48;5.55;;;2.03;;
32216;SDS011;18709;51.140;4.088;2022-07-18T02:56:13;4.88;;;2.13;;
32216;SDS011;18709;51.140;4.088;2022-07-18T02:58:39;7.85;;;2.33;;
32216;SDS011;18709;51.140;4.088;2022-07-18T03:01:05;3.90;;;2.08;;
32216;SDS011;18709;51.140;4.088;2022-07-18T03:03:31;3.47;;;1.83;;
32216;SDS011;18709;51.140;4.088;2022-07-18T03:05:56;5.70;;;1.80;;
32216;SDS011;18709;51.140;4.088;2022-07-18T03:08:22;5.78;;;2.05;;
32216;SDS011;18709;51.140;4.088;2022-07-18T03:10:48;10.27;;;2.40;;
32216;SDS011;18709;51.140;4.088;2022-07-18T03:13:13;8.77;;;2.08;;
32216;SDS011;18709;51.140;4.088;2022-07-18T03:15:39;5.03;;;2.05;;
32216;SDS011;18709;51.140;4.088;2022-07-18T03:18:05;3.20;;;1.92;;
32216;SDS011;18709;51.140;4.088;2022-07-18T03:20:32;4.55;;;2.67;;
32216;SDS011;18709;51.140;4.088;2022-07-18T03:22:57;4.80;;;1.67;;
32216;SDS011;18709;51.140;4.088;2022-07-18T03:25:23;4.35;;;2.03;;
32216;SDS011;18709;51.140;4.088;2022-07-18T03:27:49;4.03;;;2.10;;
32216;SDS011;18709;51.140;4.088;2022-07-18T03:30:15;5.88;;;2.28;;
32216;SDS011;18709;51.140;4.088;2022-07-18T03:32:41;5.82;;;1.77;;
32216;SDS011;18709;51.140;4.088;2022-07-18T03:35:07;10.20;;;2.20;;
32216;SDS011;18709;51.140;4.088;2022-07-18T03:37:33;6.53;;;1.95;;
32216;SDS011;18709;51.140;4.088;2022-07-18T03:39:59;4.82;;;2.08;;
32216;SDS011;18709;51.140;4.088;2022-07-18T03:42:24;3.10;;;2.10;;
32216;SDS011;18709;51.140;4.088;2022-07-18T03:44:50;6.68;;;2.22;;
32216;SDS011;18709;51.140;4.088;2022-07-18T03:47:16;8.93;;;2.05;;
32216;SDS011;18709;51.140;4.088;2022-07-18T03:49:42;6.72;;;2.10;;
32216;SDS011;18709;51.140;4.088;2022-07-18T03:52:07;7.18;;;2.38;;
32216;SDS011;18709;51.140;4.088;2022-07-18T03:54:33;6.13;;;2.58;;
32216;SDS011;18709;51.140;4.088;2022-07-18T03:56:59;5.13;;;2.08;;
32216;SDS011;18709;51.140;4.088;2022-07-18T03:59:24;6.97;;;2.30;;
32216;SDS011;18709;51.140;4.088;2022-07-18T04:01:51;9.85;;;2.55;;
32216;SDS011;18709;51.140;4.088;2022-07-18T04:04:16;8.63;;;2.45;;
32216;SDS011;18709;51.140;4.088;2022-07-18T04:06:42;8.80;;;2.40;;
32216;SDS011;18709;51.140;4.088;2022-07-18T04:09:08;5.63;;;2.50;;
32216;SDS011;18709;51.140;4.088;2022-07-18T04:11:33;8.02;;;2.50;;
32216;SDS011;18709;51.140;4.088;2022-07-18T04:13:59;8.05;;;2.05;;
32216;SDS011;18709;51.140;4.088;2022-07-18T04:16:25;7.00;;;2.88;;
32216;SDS011;18709;51.140;4.088;2022-07-18T04:18:50;5.13;;;2.10;;
32216;SDS011;18709;51.140;4.088;2022-07-18T04:21:16;7.72;;;2.55;;
32216;SDS011;18709;51.140;4.088;2022-07-18T04:23:43;8.23;;;2.42;;
32216;SDS011;18709;51.140;4.088;2022-07-18T04:26:08;5.55;;;2.63;;
32216;SDS011;18709;51.140;4.088;2022-07-18T04:28:34;8.73;;;2.47;;
32216;SDS011;18709;51.140;4.088;2022-07-18T04:31:00;8.88;;;2.60;;
32216;SDS011;18709;51.140;4.088;2022-07-18T04:33:26;10.68;;;2.42;;
32216;SDS011;18709;51.140;4.088;2022-07-18T04:35:52;7.53;;;2.55;;
32216;SDS011;18709;51.140;4.088;2022-07-18T04:38:18;9.70;;;3.22;;
32216;SDS011;18709;51.140;4.088;2022-07-18T04:40:44;7.95;;;2.80;;
32216;SDS011;18709;51.140;4.088;2022-07-18T04:43:10;7.88;;;2.50;;
32216;SDS011;18709;51.140;4.088;2022-07-18T04:45:36;7.15;;;2.50;;
32216;SDS011;18709;51.140;4.088;2022-07-18T04:48:03;6.40;;;2.17;;
32216;SDS011;18709;51.140;4.088;2022-07-18T04:50:29;9.30;;;2.60;;
32216;SDS011;18709;51.140;4.088;2022-07-18T04:52:55;7.28;;;2.88;;
32216;SDS011;18709;51.140;4.088;2022-07-18T04:55:22;5.68;;;2.05;;
32216;SDS011;18709;51.140;4.088;2022-07-18T04:57:49;5.78;;;2.90;;
32216;SDS011;18709;51.140;4.088;2022-07-18T05:00:18;5.63;;;2.30;;
32216;SDS011;18709;51.140;4.088;2022-07-18T05:02:47;7.53;;;2.60;;
32216;SDS011;18709;51.140;4.088;2022-07-18T05:05:14;9.98;;;2.33;;
32216;SDS011;18709;51.140;4.088;2022-07-18T05:07:42;7.05;;;2.28;;
32216;SDS011;18709;51.140;4.088;2022-07-18T05:10:10;6.43;;;2.40;;
32216;SDS011;18709;51.140;4.088;2022-07-18T05:12:37;8.52;;;2.38;;
32216;SDS011;18709;51.140;4.088;2022-07-18T05:15:04;8.10;;;2.47;;
32216;SDS011;18709;51.140;4.088;2022-07-18T05:17:32;6.47;;;2.28;;
32216;SDS011;18709;51.140;4.088;2022-07-18T05:19:58;10.80;;;2.53;;
32216;SDS011;18709;51.140;4.088;2022-07-18T05:22:23;8.45;;;3.10;;
32216;SDS011;18709;51.140;4.088;2022-07-18T05:24:49;8.23;;;2.88;;
32216;SDS011;18709;51.140;4.088;2022-07-18T05:27:15;6.00;;;2.55;;
32216;SDS011;18709;51.140;4.088;2022-07-18T05:29:41;9.15;;;2.85;;
32216;SDS011;18709;51.140;4.088;2022-07-18T05:32:07;11.98;;;2.63;;
32216;SDS011;18709;51.140;4.088;2022-07-18T05:34:33;8.30;;;2.83;;
32216;SDS011;18709;51.140;4.088;2022-07-18T05:36:59;13.02;;;2.80;;
32216;SDS011;18709;51.140;4.088;2022-07-18T05:39:25;9.55;;;3.45;;
32216;SDS011;18709;51.140;4.088;2022-07-18T05:41:51;7.90;;;2.45;;
32216;SDS011;18709;51.140;4.088;2022-07-18T05:44:18;8.10;;;2.42;;
32216;SDS011;18709;51.140;4.088;2022-07-18T05:46:47;5.93;;;1.95;;
32216;SDS011;18709;51.140;4.088;2022-07-18T05:49:13;7.20;;;2.83;;
32216;SDS011;18709;51.140;4.088;2022-07-18T05:51:39;7.13;;;2.30;;
32216;SDS011;18709;51.140;4.088;2022-07-18T05:54:05;7.13;;;2.08;;
32216;SDS011;18709;51.140;4.088;2022-07-18T05:56:31;6.35;;;2.47;;
32216;SDS011;18709;51.140;4.088;2022-07-18T05:58:57;7.45;;;2.65;;
32216;SDS011;18709;51.140;4.088;2022-07-18T06:01:23;5.07;;;2.35;;
32216;SDS011;18709;51.140;4.088;2022-07-18T06:03:48;7.55;;;2.15;;
32216;SDS011;18709;51.140;4.088;2022-07-18T06:06:14;6.30;;;2.67;;
32216;SDS011;18709;51.140;4.088;2022-07-18T06:08:43;6.00;;;2.25;;
32216;SDS011;18709;51.140;4.088;2022-07-18T06:11:09;5.93;;;2.60;;
32216;SDS011;18709;51.140;4.088;2022-07-18T06:13:36;8.65;;;2.42;;
32216;SDS011;18709;51.140;4.088;2022-07-18T06:16:04;7.78;;;2.53;;
32216;SDS011;18709;51.140;4.088;2022-07-18T06:18:30;10.38;;;2.70;;
32216;SDS011;18709;51.140;4.088;2022-07-18T06:20:56;6.43;;;2.67;;
32216;SDS011;18709;51.140;4.088;2022-07-18T06:23:22;7.28;;;2.20;;
32216;SDS011;18709;51.140;4.088;2022-07-18T06:25:47;8.40;;;2.20;;
32216;SDS011;18709;51.140;4.088;2022-07-18T06:28:13;4.18;;;1.90;;
32216;SDS011;18709;51.140;4.088;2022-07-18T06:30:39;8.85;;;2.60;;
32216;SDS011;18709;51.140;4.088;2022-07-18T06:33:04;9.93;;;3.65;;
32216;SDS011;18709;51.140;4.088;2022-07-18T06:35:32;11.18;;;2.67;;
32216;SDS011;18709;51.140;4.088;2022-07-18T06:37:58;5.35;;;2.17;;
32216;SDS011;18709;51.140;4.088;2022-07-18T06:40:24;9.52;;;2.15;;
32216;SDS011;18709;51.140;4.088;2022-07-18T06:42:50;4.13;;;2.00;;
32216;SDS011;18709;51.140;4.088;2022-07-18T06:45:17;4.65;;;2.08;;
32216;SDS011;18709;51.140;4.088;2022-07-18T06:47:43;5.40;;;2.33;;
32216;SDS011;18709;51.140;4.088;2022-07-18T06:50:10;4.30;;;2.05;;
32216;SDS011;18709;51.140;4.088;2022-07-18T06:52:38;5.10;;;2.00;;
32216;SDS011;18709;51.140;4.088;2022-07-18T06:55:05;7.55;;;2.40;;
32216;SDS011;18709;51.140;4.088;2022-07-18T06:57:31;8.00;;;2.28;;
32216;SDS011;18709;51.140;4.088;2022-07-18T06:59:57;5.20;;;2.30;;
32216;SDS011;18709;51.140;4.088;2022-07-18T07:02:23;6.97;;;2.20;;
32216;SDS011;18709;51.140;4.088;2022-07-18T07:04:48;5.72;;;2.53;;
32216;SDS011;18709;51.140;4.088;2022-07-18T07:07:14;7.82;;;2.70;;
32216;SDS011;18709;51.140;4.088;2022-07-18T07:09:40;4.60;;;2.10;;
32216;SDS011;18709;51.140;4.088;2022-07-18T07:12:06;9.25;;;2.97;;
32216;SDS011;18709;51.140;4.088;2022-07-18T07:14:32;5.13;;;2.30;;
32216;SDS011;18709;51.140;4.088;2022-07-18T07:16:57;5.70;;;2.10;;
32216;SDS011;18709;51.140;4.088;2022-07-18T07:19:23;6.93;;;2.58;;
32216;SDS011;18709;51.140;4.088;2022-07-18T07:21:49;4.90;;;2.35;;
32216;SDS011;18709;51.140;4.088;2022-07-18T07:24:15;5.20;;;2.47;;
32216;SDS011;18709;51.140;4.088;2022-07-18T07:26:41;9.00;;;2.40;;
32216;SDS011;18709;51.140;4.088;2022-07-18T07:29:06;5.93;;;2.40;;
32216;SDS011;18709;51.140;4.088;2022-07-18T07:31:32;5.68;;;2.10;;
32216;SDS011;18709;51.140;4.088;2022-07-18T07:33:58;7.55;;;2.20;;
32216;SDS011;18709;51.140;4.088;2022-07-18T07:36:24;8.23;;;2.70;;
32216;SDS011;18709;51.140;4.088;2022-07-18T07:38:49;7.57;;;2.72;;
32216;SDS011;18709;51.140;4.088;2022-07-18T07:41:15;7.13;;;2.55;;
32216;SDS011;18709;51.140;4.088;2022-07-18T07:43:41;9.55;;;2.22;;
32216;SDS011;18709;51.140;4.088;2022-07-18T07:46:07;8.55;;;2.58;;
32216;SDS011;18709;51.140;4.088;2022-07-18T07:48:32;3.70;;;1.90;;
32216;SDS011;18709;51.140;4.088;2022-07-18T07:50:58;5.47;;;2.28;;
32216;SDS011;18709;51.140;4.088;2022-07-18T07:53:25;9.00;;;2.25;;
32216;SDS011;18709;51.140;4.088;2022-07-18T07:55:51;14.45;;;2.55;;
32216;SDS011;18709;51.140;4.088;2022-07-18T07:58:17;7.72;;;2.58;;
32216;SDS011;18709;51.140;4.088;2022-07-18T08:00:42;5.47;;;2.42;;
32216;SDS011;18709;51.140;4.088;2022-07-18T08:03:08;5.20;;;2.40;;
32216;SDS011;18709;51.140;4.088;2022-07-18T08:05:36;5.85;;;2.28;;
32216;SDS011;18709;51.140;4.088;2022-07-18T08:08:04;5.25;;;2.10;;
32216;SDS011;18709;51.140;4.088;2022-07-18T08:10:31;5.85;;;2.17;;
32216;SDS011;18709;51.140;4.088;2022-07-18T08:12:57;6.97;;;2.25;;
32216;SDS011;18709;51.140;4.088;2022-07-18T08:15:23;5.70;;;2.20;;
32216;SDS011;18709;51.140;4.088;2022-07-18T08:17:49;8.73;;;2.55;;
32216;SDS011;18709;51.140;4.088;2022-07-18T08:20:15;4.60;;;2.35;;
32216;SDS011;18709;51.140;4.088;2022-07-18T08:22:58;6.35;;;2.13;;
32216;SDS011;18709;51.140;4.088;2022-07-18T08:25:46;4.97;;;2.25;;
32216;SDS011;18709;51.140;4.088;2022-07-18T08:28:12;6.90;;;2.28;;
32216;SDS011;18709;51.140;4.088;2022-07-18T08:30:38;7.00;;;2.13;;
32216;SDS011;18709;51.140;4.088;2022-07-18T08:33:05;8.65;;;2.30;;
32216;SDS011;18709;51.140;4.088;2022-07-18T08:35:32;6.95;;;2.17;;
32216;SDS011;18709;51.140;4.088;2022-07-18T08:37:59;7.25;;;1.95;;
32216;SDS011;18709;51.140;4.088;2022-07-18T08:40:26;5.32;;;2.20;;
32216;SDS011;18709;51.140;4.088;2022-07-18T08:42:53;5.03;;;2.28;;
32216;SDS011;18709;51.140;4.088;2022-07-18T08:45:20;4.82;;;2.22;;
32216;SDS011;18709;51.140;4.088;2022-07-18T08:47:47;4.63;;;2.00;;
32216;SDS011;18709;51.140;4.088;2022-07-18T08:50:14;6.10;;;1.98;;
32216;SDS011;18709;51.140;4.088;2022-07-18T08:52:40;3.97;;;2.40;;
32216;SDS011;18709;51.140;4.088;2022-07-18T08:55:07;4.60;;;2.50;;
32216;SDS011;18709;51.140;4.088;2022-07-18T08:57:33;7.47;;;2.05;;
32216;SDS011;18709;51.140;4.088;2022-07-18T08:59:59;5.80;;;2.10;;
32216;SDS011;18709;51.140;4.088;2022-07-18T09:02:27;4.88;;;2.03;;
32216;SDS011;18709;51.140;4.088;2022-07-18T09:04:53;6.38;;;2.22;;
32216;SDS011;18709;51.140;4.088;2022-07-18T09:07:26;15.13;;;2.45;;
32216;SDS011;18709;51.140;4.088;2022-07-18T09:09:58;6.95;;;2.28;;
32216;SDS011;18709;51.140;4.088;2022-07-18T09:12:25;9.57;;;2.50;;
32216;SDS011;18709;51.140;4.088;2022-07-18T09:14:52;4.65;;;1.70;;
32216;SDS011;18709;51.140;4.088;2022-07-18T09:19:57;4.05;;;1.75;;
32216;SDS011;18709;51.140;4.088;2022-07-18T09:22:24;6.43;;;1.75;;
32216;SDS011;18709;51.140;4.088;2022-07-18T09:24:52;8.73;;;1.83;;
32216;SDS011;18709;51.140;4.088;2022-07-18T09:27:44;5.53;;;1.90;;
32216;SDS011;18709;51.140;4.088;2022-07-18T09:32:49;4.15;;;1.83;;
32216;SDS011;18709;51.140;4.088;2022-07-18T09:35:22;6.55;;;1.80;;
32216;SDS011;18709;51.140;4.088;2022-07-18T09:38:14;6.13;;;2.03;;
32216;SDS011;18709;51.140;4.088;2022-07-18T09:40:50;9.13;;;2.10;;
32216;SDS011;18709;51.140;4.088;2022-07-18T09:43:18;7.18;;;1.65;;
32216;SDS011;18709;51.140;4.088;2022-07-18T09:45:46;5.43;;;2.03;;
32216;SDS011;18709;51.140;4.088;2022-07-18T09:48:24;4.43;;;1.80;;
32216;SDS011;18709;51.140;4.088;2022-07-18T09:50:52;5.45;;;2.05;;
32216;SDS011;18709;51.140;4.088;2022-07-18T09:53:24;6.97;;;1.80;;
32216;SDS011;18709;51.140;4.088;2022-07-18T09:56:07;5.47;;;1.83;;
32216;SDS011;18709;51.140;4.088;2022-07-18T09:58:38;4.30;;;1.80;;
32216;SDS011;18709;51.140;4.088;2022-07-18T10:01:18;7.72;;;1.73;;
32216;SDS011;18709;51.140;4.088;2022-07-18T10:03:44;3.80;;;1.80;;
32216;SDS011;18709;51.140;4.088;2022-07-18T10:06:10;3.80;;;1.60;;
32216;SDS011;18709;51.140;4.088;2022-07-18T10:08:36;2.10;;;1.50;;
32216;SDS011;18709;51.140;4.088;2022-07-18T10:11:04;5.07;;;1.90;;
32216;SDS011;18709;51.140;4.088;2022-07-18T10:13:32;3.53;;;1.50;;
32216;SDS011;18709;51.140;4.088;2022-07-18T10:15:59;4.50;;;1.90;;
32216;SDS011;18709;51.140;4.088;2022-07-18T10:18:26;6.45;;;2.22;;
32216;SDS011;18709;51.140;4.088;2022-07-18T10:20:55;2.55;;;1.67;;
32216;SDS011;18709;51.140;4.088;2022-07-18T10:23:27;6.32;;;1.88;;
32216;SDS011;18709;51.140;4.088;2022-07-18T10:31:59;8.48;;;1.48;;
32216;SDS011;18709;51.140;4.088;2022-07-18T10:34:34;2.55;;;1.60;;
32216;SDS011;18709;51.140;4.088;2022-07-18T10:39:47;3.95;;;1.60;;
32216;SDS011;18709;51.140;4.088;2022-07-18T10:42:17;3.30;;;1.50;;
32216;SDS011;18709;51.140;4.088;2022-07-18T10:44:45;5.32;;;1.90;;
32216;SDS011;18709;51.140;4.088;2022-07-18T10:47:11;3.28;;;1.35;;
32216;SDS011;18709;51.140;4.088;2022-07-18T10:55:25;3.08;;;1.58;;
32216;SDS011;18709;51.140;4.088;2022-07-18T11:00:39;3.05;;;1.55;;
32216;SDS011;18709;51.140;4.088;2022-07-18T11:03:10;3.55;;;1.58;;
32216;SDS011;18709;51.140;4.088;2022-07-18T11:05:44;1.80;;;1.23;;
32216;SDS011;18709;51.140;4.088;2022-07-18T11:08:18;5.22;;;1.38;;
32216;SDS011;18709;51.140;4.088;2022-07-18T11:19:15;3.40;;;1.40;;
32216;SDS011;18709;51.140;4.088;2022-07-18T11:23:46;3.22;;;1.50;;
32216;SDS011;18709;51.140;4.088;2022-07-18T11:26:32;2.47;;;1.48;;
32216;SDS011;18709;51.140;4.088;2022-07-18T11:29:06;2.25;;;1.35;;
32216;SDS011;18709;51.140;4.088;2022-07-18T11:34:23;2.37;;;1.50;;
32216;SDS011;18709;51.140;4.088;2022-07-18T11:36:50;4.43;;;1.58;;
32216;SDS011;18709;51.140;4.088;2022-07-18T11:39:29;3.05;;;1.80;;
32216;SDS011;18709;51.140;4.088;2022-07-18T11:41:55;3.58;;;1.45;;
32216;SDS011;18709;51.140;4.088;2022-07-18T11:44:22;1.95;;;1.10;;
32216;SDS011;18709;51.140;4.088;2022-07-18T11:49:53;3.67;;;1.38;;
32216;SDS011;18709;51.140;4.088;2022-07-18T11:52:20;7.15;;;1.70;;
32216;SDS011;18709;51.140;4.088;2022-07-18T11:54:46;4.30;;;1.50;;
32216;SDS011;18709;51.140;4.088;2022-07-18T11:57:11;2.08;;;1.50;;
32216;SDS011;18709;51.140;4.088;2022-07-18T11:59:41;4.13;;;1.30;;
32216;SDS011;18709;51.140;4.088;2022-07-18T12:02:09;2.97;;;1.52;;
32216;SDS011;18709;51.140;4.088;2022-07-18T12:04:36;2.15;;;1.42;;
32216;SDS011;18709;51.140;4.088;2022-07-18T12:09:40;2.22;;;1.42;;
32216;SDS011;18709;51.140;4.088;2022-07-18T12:12:13;1.92;;;1.30;;
32216;SDS011;18709;51.140;4.088;2022-07-18T12:14:40;2.92;;;1.58;;
32216;SDS011;18709;51.140;4.088;2022-07-18T12:17:06;1.73;;;1.40;;
32216;SDS011;18709;51.140;4.088;2022-07-18T12:19:36;5.10;;;1.42;;
32216;SDS011;18709;51.140;4.088;2022-07-18T12:35:18;3.70;;;1.35;;
32216;SDS011;18709;51.140;4.088;2022-07-18T12:40:19;4.90;;;1.67;;
32216;SDS011;18709;51.140;4.088;2022-07-18T12:42:45;2.70;;;1.33;;
32216;SDS011;18709;51.140;4.088;2022-07-18T12:45:12;4.38;;;1.85;;
32216;SDS011;18709;51.140;4.088;2022-07-18T12:47:39;7.68;;;1.50;;
32216;SDS011;18709;51.140;4.088;2022-07-18T12:50:05;3.50;;;1.48;;
32216;SDS011;18709;51.140;4.088;2022-07-18T12:52:32;1.63;;;1.30;;
32216;SDS011;18709;51.140;4.088;2022-07-18T12:54:58;6.95;;;1.80;;
32216;SDS011;18709;51.140;4.088;2022-07-18T12:57:24;4.72;;;1.25;;
32216;SDS011;18709;51.140;4.088;2022-07-18T12:59:50;3.28;;;1.70;;
32216;SDS011;18709;51.140;4.088;2022-07-18T13:02:16;3.17;;;1.45;;
32216;SDS011;18709;51.140;4.088;2022-07-18T13:04:43;1.80;;;1.50;;
32216;SDS011;18709;51.140;4.088;2022-07-18T13:07:09;3.53;;;1.27;;
32216;SDS011;18709;51.140;4.088;2022-07-18T13:09:35;2.10;;;1.38;;
32216;SDS011;18709;51.140;4.088;2022-07-18T13:12:01;2.05;;;1.77;;
32216;SDS011;18709;51.140;4.088;2022-07-18T13:14:27;16.08;;;1.70;;
32216;SDS011;18709;51.140;4.088;2022-07-18T13:16:53;2.38;;;1.30;;
32216;SDS011;18709;51.140;4.088;2022-07-18T13:19:19;4.47;;;1.52;;
32216;SDS011;18709;51.140;4.088;2022-07-18T13:21:46;1.92;;;1.40;;
32216;SDS011;18709;51.140;4.088;2022-07-18T13:24:13;6.65;;;1.48;;
32216;SDS011;18709;51.140;4.088;2022-07-18T13:26:39;4.90;;;1.60;;
32216;SDS011;18709;51.140;4.088;2022-07-18T13:29:05;2.60;;;1.40;;
32216;SDS011;18709;51.140;4.088;2022-07-18T13:31:31;4.47;;;1.25;;
32216;SDS011;18709;51.140;4.088;2022-07-18T13:33:57;2.35;;;1.45;;
32216;SDS011;18709;51.140;4.088;2022-07-18T13:36:24;2.58;;;1.70;;
32216;SDS011;18709;51.140;4.088;2022-07-18T13:38:50;5.47;;;1.73;;
32216;SDS011;18709;51.140;4.088;2022-07-18T13:41:15;10.10;;;1.77;;
32216;SDS011;18709;51.140;4.088;2022-07-18T13:43:41;4.43;;;1.60;;
32216;SDS011;18709;51.140;4.088;2022-07-18T13:46:07;3.47;;;1.48;;
32216;SDS011;18709;51.140;4.088;2022-07-18T13:48:34;4.32;;;1.60;;
32216;SDS011;18709;51.140;4.088;2022-07-18T13:51:00;3.38;;;1.55;;
32216;SDS011;18709;51.140;4.088;2022-07-18T13:53:26;1.98;;;1.38;;
32216;SDS011;18709;51.140;4.088;2022-07-18T13:55:52;5.85;;;1.40;;
32216;SDS011;18709;51.140;4.088;2022-07-18T13:58:18;2.60;;;1.50;;
32216;SDS011;18709;51.140;4.088;2022-07-18T14:00:44;4.10;;;1.30;;
32216;SDS011;18709;51.140;4.088;2022-07-18T14:03:11;4.65;;;1.25;;
32216;SDS011;18709;51.140;4.088;2022-07-18T14:05:37;2.78;;;1.30;;
32216;SDS011;18709;51.140;4.088;2022-07-18T14:08:04;4.55;;;1.58;;
32216;SDS011;18709;51.140;4.088;2022-07-18T14:10:32;2.10;;;1.48;;
32216;SDS011;18709;51.140;4.088;2022-07-18T14:12:58;5.35;;;1.50;;
32216;SDS011;18709;51.140;4.088;2022-07-18T14:15:24;1.73;;;1.48;;
32216;SDS011;18709;51.140;4.088;2022-07-18T14:17:49;2.45;;;1.40;;
32216;SDS011;18709;51.140;4.088;2022-07-18T14:20:16;6.32;;;1.42;;
32216;SDS011;18709;51.140;4.088;2022-07-18T14:22:43;2.08;;;1.60;;
32216;SDS011;18709;51.140;4.088;2022-07-18T14:25:12;2.45;;;1.40;;
32216;SDS011;18709;51.140;4.088;2022-07-18T14:27:39;9.13;;;1.67;;
32216;SDS011;18709;51.140;4.088;2022-07-18T14:30:06;2.35;;;1.40;;
32216;SDS011;18709;51.140;4.088;2022-07-18T14:32:34;3.73;;;1.67;;
32216;SDS011;18709;51.140;4.088;2022-07-18T14:34:59;2.90;;;1.40;;
32216;SDS011;18709;51.140;4.088;2022-07-18T14:37:25;2.40;;;1.55;;
32216;SDS011;18709;51.140;4.088;2022-07-18T14:39:51;2.00;;;1.40;;
32216;SDS011;18709;51.140;4.088;2022-07-18T14:42:17;2.75;;;1.63;;
32216;SDS011;18709;51.140;4.088;2022-07-18T14:44:43;1.30;;;1.20;;
32216;SDS011;18709;51.140;4.088;2022-07-18T14:47:09;1.40;;;1.30;;
32216;SDS011;18709;51.140;4.088;2022-07-18T14:49:34;5.25;;;1.30;;
32216;SDS011;18709;51.140;4.088;2022-07-18T14:52:00;2.92;;;1.50;;
32216;SDS011;18709;51.140;4.088;2022-07-18T14:54:26;1.55;;;1.17;;
32216;SDS011;18709;51.140;4.088;2022-07-18T14:56:53;2.22;;;1.13;;
32216;SDS011;18709;51.140;4.088;2022-07-18T14:59:19;3.70;;;1.23;;
32216;SDS011;18709;51.140;4.088;2022-07-18T15:01:46;3.95;;;1.67;;
32216;SDS011;18709;51.140;4.088;2022-07-18T15:04:13;4.05;;;1.50;;
32216;SDS011;18709;51.140;4.088;2022-07-18T15:06:39;1.65;;;1.30;;
32216;SDS011;18709;51.140;4.088;2022-07-18T15:09:07;2.83;;;1.40;;
32216;SDS011;18709;51.140;4.088;2022-07-18T15:11:38;1.48;;;1.30;;
32216;SDS011;18709;51.140;4.088;2022-07-18T15:14:04;2.17;;;1.60;;
32216;SDS011;18709;51.140;4.088;2022-07-18T15:16:30;4.40;;;1.67;;
32216;SDS011;18709;51.140;4.088;2022-07-18T15:18:55;4.15;;;1.35;;
32216;SDS011;18709;51.140;4.088;2022-07-18T15:21:21;1.63;;;1.52;;
32216;SDS011;18709;51.140;4.088;2022-07-18T15:23:47;1.23;;;1.10;;
32216;SDS011;18709;51.140;4.088;2022-07-18T15:26:13;2.20;;;1.48;;
32216;SDS011;18709;51.140;4.088;2022-07-18T15:28:40;2.72;;;1.60;;
32216;SDS011;18709;51.140;4.088;2022-07-18T15:31:06;4.00;;;1.20;;
32216;SDS011;18709;51.140;4.088;2022-07-18T15:33:33;2.75;;;1.35;;
32216;SDS011;18709;51.140;4.088;2022-07-18T15:35:59;4.90;;;1.52;;
32216;SDS011;18709;51.140;4.088;2022-07-18T15:38:26;1.20;;;1.10;;
32216;SDS011;18709;51.140;4.088;2022-07-18T15:40:52;3.42;;;1.33;;
32216;SDS011;18709;51.140;4.088;2022-07-18T15:43:17;3.05;;;1.30;;